Time;durP1;ratioP1;P1;durP2;ratioP2;P2;SDS_P1;SDS_P2;PMS_P1;PMS_P2;Temp;Humidity;BMP_temperature;BMP_pressure;BME280_temperature;BME280_humidity;BME280_pressure;Samples;Min_cycle;Max_cycle;Signal;HPM_P1;HPM_P2
2021/10/16 00:00:32;;;;;;;12.23;2.63;;;8.60;99.90;;;;;;5116678;28;20912;-70
2021/10/16 00:02:59;;;;;;;7.37;2.20;;;8.60;99.90;;;;;;5117419;28;20472;-70
2021/10/16 00:05:25;;;;;;;12.67;3.07;;;8.60;99.90;;;;;;5117362;28;20523;-70
2021/10/16 00:07:52;;;;;;;11.53;2.90;;;8.50;99.90;;;;;;5116913;28;20493;-70
2021/10/16 00:10:19;;;;;;;7.57;2.80;;;8.50;99.90;;;;;;5117406;27;20456;-70
2021/10/16 00:12:46;;;;;;;8.27;2.27;;;8.50;99.90;;;;;;5117722;28;20530;-70
2021/10/16 00:15:14;;;;;;;12.93;2.33;;;8.40;99.90;;;;;;5116930;28;20565;-70
2021/10/16 00:17:41;;;;;;;4.90;1.80;;;8.40;99.90;;;;;;5116680;28;20904;-70
2021/10/16 00:20:09;;;;;;;10.60;3.50;;;8.40;99.90;;;;;;5117045;28;20482;-70
2021/10/16 00:22:36;;;;;;;7.33;2.70;;;8.40;99.90;;;;;;5116581;28;20467;-70
2021/10/16 00:25:03;;;;;;;6.70;2.20;;;8.30;99.90;;;;;;5116889;27;20457;-70
2021/10/16 00:27:30;;;;;;;8.80;2.23;;;8.30;99.90;;;;;;5116787;28;20456;-70
2021/10/16 00:29:56;;;;;;;10.23;3.00;;;8.30;99.90;;;;;;5116872;27;20460;-69
2021/10/16 00:32:24;;;;;;;10.97;2.27;;;8.30;99.90;;;;;;5116596;28;20482;-70
2021/10/16 00:34:51;;;;;;;7.73;2.97;;;8.30;99.90;;;;;;5117554;28;20775;-70
2021/10/16 00:37:18;;;;;;;5.80;2.03;;;8.30;99.90;;;;;;5116776;28;20456;-70
2021/10/16 00:39:44;;;;;;;9.23;2.50;;;8.30;99.90;;;;;;5116616;28;20464;-70
2021/10/16 00:42:11;;;;;;;8.37;2.40;;;8.30;99.90;;;;;;5116549;28;20507;-70
2021/10/16 00:44:38;;;;;;;15.33;2.97;;;8.20;99.90;;;;;;5116398;28;20457;-70
2021/10/16 00:47:05;;;;;;;11.30;2.80;;;8.20;99.90;;;;;;5116635;28;20462;-70
2021/10/16 00:49:33;;;;;;;8.40;2.83;;;8.20;99.90;;;;;;5116716;28;20465;-69
2021/10/16 00:52:01;;;;;;;11.03;2.17;;;8.20;99.90;;;;;;5116298;27;20476;-70
2021/10/16 00:54:29;;;;;;;8.87;2.27;;;8.20;99.90;;;;;;5116020;28;20469;-70
2021/10/16 00:56:58;;;;;;;11.07;2.70;;;8.20;99.90;;;;;;5116397;28;20490;-70
2021/10/16 00:59:26;;;;;;;10.77;2.70;;;8.20;99.90;;;;;;5116027;27;20465;-70
2021/10/16 01:01:52;;;;;;;7.63;2.30;;;8.20;99.90;;;;;;5116048;28;20941;-70
2021/10/16 01:04:19;;;;;;;15.10;2.80;;;8.20;99.90;;;;;;5115930;28;20469;-70
2021/10/16 01:06:47;;;;;;;7.93;2.77;;;8.20;99.90;;;;;;5115801;28;20501;-70
2021/10/16 01:09:16;;;;;;;14.37;3.00;;;8.10;99.90;;;;;;5116097;28;20455;-70
2021/10/16 01:11:49;;;;;;;4.63;2.97;;;8.10;99.90;;;;;;5115166;28;20770;-70
2021/10/16 01:14:16;;;;;;;8.37;2.87;;;8.10;99.90;;;;;;5116015;28;20442;-70
2021/10/16 01:16:45;;;;;;;7.97;2.53;;;8.10;99.90;;;;;;5115563;28;20930;-70
2021/10/16 01:19:13;;;;;;;14.27;2.83;;;8.10;99.90;;;;;;5115914;28;20800;-70
2021/10/16 01:21:44;;;;;;;5.30;2.07;;;8.10;99.90;;;;;;5115318;28;20522;-70
2021/10/16 01:24:12;;;;;;;4.63;2.30;;;8.10;99.90;;;;;;5116050;27;20451;-70
2021/10/16 01:26:41;;;;;;;11.07;3.00;;;8.00;99.90;;;;;;5115936;28;20459;-70
2021/10/16 01:29:08;;;;;;;8.13;2.37;;;8.00;99.90;;;;;;5115544;28;20484;-70
2021/10/16 01:31:37;;;;;;;9.07;3.20;;;8.00;99.90;;;;;;5115897;28;20461;-70
2021/10/16 01:34:04;;;;;;;6.73;2.50;;;8.00;99.90;;;;;;5115496;28;20565;-70
2021/10/16 01:36:40;;;;;;;13.00;3.10;;;8.00;99.90;;;;;;5115618;28;20531;-70
2021/10/16 01:39:08;;;;;;;14.00;2.90;;;8.00;99.90;;;;;;5115781;28;20438;-71
2021/10/16 01:41:35;;;;;;;7.90;2.47;;;8.00;99.90;;;;;;5115636;28;20478;-70
2021/10/16 01:44:04;;;;;;;6.00;2.13;;;8.00;99.90;;;;;;5115625;28;20756;-70
2021/10/16 01:46:30;;;;;;;8.87;2.40;;;8.00;99.90;;;;;;5115658;28;20766;-70
2021/10/16 01:48:57;;;;;;;8.57;2.50;;;7.90;99.90;;;;;;5114994;28;20456;-70
2021/10/16 01:51:24;;;;;;;9.50;2.73;;;7.90;99.90;;;;;;5115557;28;20480;-70
2021/10/16 01:53:50;;;;;;;11.47;2.70;;;7.90;99.90;;;;;;5114920;28;20472;-70
2021/10/16 01:56:18;;;;;;;10.67;2.73;;;7.90;99.90;;;;;;5115516;28;20459;-70
2021/10/16 01:58:45;;;;;;;8.43;2.30;;;7.90;99.90;;;;;;5115615;28;20497;-70
2021/10/16 02:01:12;;;;;;;8.30;2.70;;;7.90;99.90;;;;;;5115143;28;20465;-70
2021/10/16 02:03:38;;;;;;;6.93;2.00;;;7.90;99.90;;;;;;5115476;28;20454;-70
2021/10/16 02:06:06;;;;;;;9.70;2.27;;;7.90;99.90;;;;;;5114875;28;20767;-70
2021/10/16 02:08:33;;;;;;;12.17;2.33;;;7.90;99.90;;;;;;5115525;28;20454;-70
2021/10/16 02:11:00;;;;;;;7.90;2.77;;;7.90;99.90;;;;;;5114973;28;20455;-70
2021/10/16 02:13:28;;;;;;;6.73;2.40;;;7.90;99.90;;;;;;5115053;28;20475;-70
2021/10/16 02:15:54;;;;;;;12.10;2.90;;;7.90;99.90;;;;;;5115279;28;20452;-70
2021/10/16 02:18:21;;;;;;;8.60;2.63;;;7.90;99.90;;;;;;5115051;28;20469;-70
2021/10/16 02:20:48;;;;;;;6.90;2.30;;;7.90;99.90;;;;;;5114919;28;20454;-69
2021/10/16 02:23:14;;;;;;;4.40;1.87;;;7.90;99.90;;;;;;5116142;28;20460;-70
2021/10/16 02:25:41;;;;;;;8.77;2.70;;;7.90;99.90;;;;;;5119597;28;20458;-70
2021/10/16 02:28:08;;;;;;;9.13;2.27;;;7.90;99.90;;;;;;5119239;28;20799;-70
2021/10/16 02:30:36;;;;;;;9.20;2.23;;;7.90;99.90;;;;;;5119929;28;20470;-70
2021/10/16 02:33:03;;;;;;;6.03;1.93;;;7.90;99.90;;;;;;5119109;28;20485;-69
2021/10/16 02:35:29;;;;;;;8.50;2.77;;;7.80;99.90;;;;;;5119115;27;20834;-70
2021/10/16 02:37:56;;;;;;;6.07;3.10;;;7.80;99.90;;;;;;5119227;28;20464;-70
2021/10/16 02:40:23;;;;;;;12.50;2.70;;;7.80;99.90;;;;;;5118927;27;20457;-70
2021/10/16 02:42:49;;;;;;;10.20;2.47;;;7.80;99.90;;;;;;5119328;28;20449;-70
2021/10/16 02:45:17;;;;;;;16.70;1.83;;;7.80;99.90;;;;;;5118872;28;20784;-69
2021/10/16 02:47:46;;;;;;;13.80;2.40;;;7.80;99.90;;;;;;5119174;28;20514;-69
2021/10/16 02:50:16;;;;;;;10.27;2.90;;;7.80;99.90;;;;;;5118458;28;20495;-70
2021/10/16 02:52:42;;;;;;;7.57;2.30;;;7.70;99.90;;;;;;5118536;28;20480;-70
2021/10/16 02:55:10;;;;;;;4.30;1.80;;;7.70;99.90;;;;;;5118543;27;20449;-70
2021/10/16 02:57:37;;;;;;;11.60;2.50;;;7.70;99.90;;;;;;5118467;28;20929;-69
2021/10/16 03:00:05;;;;;;;7.80;2.03;;;7.70;99.90;;;;;;5118627;28;20473;-70
2021/10/16 03:02:32;;;;;;;8.70;2.40;;;7.70;99.90;;;;;;5118306;28;20459;-70
2021/10/16 03:05:01;;;;;;;8.57;2.53;;;7.70;99.90;;;;;;5118549;28;20850;-70
2021/10/16 03:07:28;;;;;;;10.47;2.07;;;7.70;99.90;;;;;;5118107;28;20477;-70
2021/10/16 03:09:55;;;;;;;9.70;2.10;;;7.70;99.90;;;;;;5118235;28;20941;-70
2021/10/16 03:12:23;;;;;;;6.37;2.00;;;7.70;99.90;;;;;;5118309;28;20822;-69
2021/10/16 03:14:50;;;;;;;9.03;2.20;;;7.70;99.90;;;;;;5118504;28;20450;-70
2021/10/16 03:17:17;;;;;;;10.17;2.00;;;7.60;99.90;;;;;;5117934;28;20462;-70
2021/10/16 03:19:44;;;;;;;7.63;1.97;;;7.60;99.90;;;;;;5118281;28;20459;-70
2021/10/16 03:22:12;;;;;;;8.63;2.30;;;7.70;99.90;;;;;;5117959;28;20951;-70
2021/10/16 03:24:39;;;;;;;12.53;2.70;;;7.70;99.90;;;;;;5118033;28;20449;-69
2021/10/16 03:27:07;;;;;;;7.33;2.00;;;7.70;99.90;;;;;;5118194;27;20514;-69
2021/10/16 03:29:34;;;;;;;9.30;2.17;;;7.70;99.90;;;;;;5117576;28;20885;-70
2021/10/16 03:32:01;;;;;;;6.83;2.43;;;7.80;99.90;;;;;;5118179;27;20770;-70
2021/10/16 03:34:29;;;;;;;9.40;2.57;;;7.80;99.90;;;;;;5117460;28;20545;-70
2021/10/16 03:36:56;;;;;;;8.00;2.33;;;7.90;99.90;;;;;;5117235;28;20548;-70
2021/10/16 03:39:24;;;;;;;11.13;2.70;;;7.90;99.90;;;;;;5117995;28;20466;-70
2021/10/16 03:41:51;;;;;;;12.30;2.37;;;7.90;99.90;;;;;;5117831;28;20477;-73
2021/10/16 03:44:17;;;;;;;6.40;2.33;;;8.00;99.90;;;;;;5117876;28;20456;-70
2021/10/16 03:46:44;;;;;;;9.67;2.27;;;8.00;99.90;;;;;;5117751;28;20460;-70
2021/10/16 03:49:11;;;;;;;15.17;2.10;;;8.00;99.90;;;;;;5117660;28;20455;-70
2021/10/16 03:51:38;;;;;;;7.67;2.03;;;8.00;99.90;;;;;;5117721;28;20481;-70
2021/10/16 03:54:04;;;;;;;10.40;2.20;;;8.00;99.90;;;;;;5117297;27;20482;-70
2021/10/16 03:56:32;;;;;;;9.67;2.10;;;8.00;99.90;;;;;;5117472;28;20456;-70
2021/10/16 03:58:59;;;;;;;11.53;2.90;;;8.00;99.90;;;;;;5117629;28;20459;-70
2021/10/16 04:01:26;;;;;;;9.20;2.93;;;8.00;99.90;;;;;;5117444;28;20475;-70
2021/10/16 04:03:52;;;;;;;8.33;2.87;;;8.10;99.90;;;;;;5117309;28;20902;-69
2021/10/16 04:06:19;;;;;;;10.13;2.60;;;8.10;99.90;;;;;;5117289;28;20491;-70
2021/10/16 04:08:46;;;;;;;6.53;2.50;;;8.10;99.90;;;;;;5117729;28;20473;-70
2021/10/16 04:11:12;;;;;;;7.00;2.17;;;8.10;99.90;;;;;;5117171;28;20522;-70
2021/10/16 04:13:40;;;;;;;7.20;2.30;;;8.10;99.90;;;;;;5117283;28;20479;-69
2021/10/16 04:16:07;;;;;;;5.60;2.23;;;8.10;99.90;;;;;;5117214;28;20457;-70
2021/10/16 04:18:33;;;;;;;13.40;2.37;;;8.20;99.90;;;;;;5117185;28;20534;-70
2021/10/16 04:21:00;;;;;;;11.67;2.43;;;8.20;99.90;;;;;;5117105;28;20457;-70
2021/10/16 04:23:27;;;;;;;8.23;1.80;;;8.20;99.90;;;;;;5117210;28;20450;-71
2021/10/16 04:25:54;;;;;;;6.60;2.10;;;8.20;99.90;;;;;;5116919;28;20466;-70
2021/10/16 04:28:20;;;;;;;6.73;2.20;;;8.20;99.90;;;;;;5116764;28;20463;-70
2021/10/16 04:30:48;;;;;;;9.97;3.03;;;8.20;99.90;;;;;;5117080;28;20453;-70
2021/10/16 04:33:15;;;;;;;13.97;2.40;;;8.30;99.90;;;;;;5116789;28;20486;-70
2021/10/16 04:35:41;;;;;;;8.50;2.33;;;8.30;99.90;;;;;;5116948;28;20470;-70
2021/10/16 04:38:08;;;;;;;9.40;2.20;;;8.30;99.90;;;;;;5116873;28;20523;-70
2021/10/16 04:40:35;;;;;;;8.07;2.40;;;8.30;99.90;;;;;;5116759;28;20518;-69
2021/10/16 04:43:05;;;;;;;10.00;2.60;;;8.30;99.90;;;;;;5117031;28;20991;-69
2021/10/16 04:45:32;;;;;;;8.13;2.43;;;8.30;99.90;;;;;;5116372;28;20944;-70
2021/10/16 04:48:01;;;;;;;10.17;2.93;;;8.30;99.90;;;;;;5114108;28;20463;-69
2021/10/16 04:50:28;;;;;;;6.47;2.47;;;8.30;99.90;;;;;;5116276;28;20463;-70
2021/10/16 04:52:54;;;;;;;5.80;2.00;;;8.30;99.90;;;;;;5116913;28;20544;-69
2021/10/16 04:55:24;;;;;;;4.90;2.37;;;8.30;99.90;;;;;;5116208;28;20457;-69
2021/10/16 04:57:51;;;;;;;11.40;2.20;;;8.30;99.90;;;;;;5116616;28;20540;-70
2021/10/16 05:00:18;;;;;;;14.53;2.30;;;8.30;99.90;;;;;;5116166;28;20602;-70
2021/10/16 05:02:44;;;;;;;9.80;2.30;;;8.30;99.90;;;;;;5116319;28;20542;-70
2021/10/16 05:05:13;;;;;;;7.00;2.63;;;8.30;99.90;;;;;;5116271;28;20457;-69
2021/10/16 05:07:39;;;;;;;8.70;2.73;;;8.40;99.90;;;;;;5115679;28;20488;-70
2021/10/16 05:10:06;;;;;;;9.20;2.90;;;8.40;99.90;;;;;;5116298;28;20757;-70
2021/10/16 05:12:33;;;;;;;6.80;2.70;;;8.40;99.90;;;;;;5116188;28;20788;-70
2021/10/16 05:15:00;;;;;;;11.17;2.37;;;8.50;99.90;;;;;;5115802;28;20819;-69
2021/10/16 05:17:27;;;;;;;11.13;3.23;;;8.50;99.90;;;;;;5116425;28;20457;-69
2021/10/16 05:19:53;;;;;;;8.77;4.27;;;8.50;99.90;;;;;;5116143;28;20470;-69
2021/10/16 05:22:21;;;;;;;12.73;5.10;;;8.50;99.90;;;;;;5116097;28;20517;-69
2021/10/16 05:24:48;;;;;;;10.00;6.13;;;8.60;99.90;;;;;;5115807;28;20758;-70
2021/10/16 05:27:15;;;;;;;12.77;6.90;;;8.60;99.90;;;;;;5115946;28;20517;-70
2021/10/16 05:29:43;;;;;;;9.37;7.53;;;8.60;99.90;;;;;;5115693;28;20780;-70
2021/10/16 05:32:10;;;;;;;12.47;6.90;;;8.70;99.90;;;;;;5115724;28;20792;-70
2021/10/16 05:34:36;;;;;;;9.50;6.40;;;8.70;99.90;;;;;;5115668;28;20805;-69
2021/10/16 05:37:04;;;;;;;11.40;5.80;;;8.70;99.90;;;;;;5115675;28;20460;-69
2021/10/16 05:39:32;;;;;;;14.73;5.70;;;8.70;99.90;;;;;;5115878;28;20510;-70
2021/10/16 05:41:58;;;;;;;17.63;6.00;;;8.70;99.90;;;;;;5115494;28;20464;-70
2021/10/16 05:44:27;;;;;;;11.37;4.67;;;8.70;99.90;;;;;;5115997;28;20536;-70
2021/10/16 05:46:54;;;;;;;7.13;4.90;;;8.70;99.90;;;;;;5115344;27;20455;-69
2021/10/16 05:49:20;;;;;;;10.33;4.30;;;8.70;99.90;;;;;;5115631;28;20471;-69
2021/10/16 05:51:47;;;;;;;9.97;4.60;;;8.70;99.90;;;;;;5115610;28;20456;-69
2021/10/16 05:54:14;;;;;;;6.43;3.00;;;8.70;99.90;;;;;;5115338;28;20486;-69
2021/10/16 05:56:42;;;;;;;10.27;2.90;;;8.70;99.90;;;;;;5115339;28;20534;-70
2021/10/16 05:59:08;;;;;;;5.73;3.00;;;8.70;99.90;;;;;;5115331;28;20459;-70
2021/10/16 06:01:35;;;;;;;8.57;4.00;;;8.70;99.90;;;;;;5115536;28;20460;-70
2021/10/16 06:04:02;;;;;;;8.30;3.30;;;8.70;99.90;;;;;;5115238;28;20468;-70
2021/10/16 06:06:28;;;;;;;4.27;3.20;;;8.70;99.90;;;;;;5115543;28;20548;-70
2021/10/16 06:08:56;;;;;;;14.43;5.87;;;8.70;99.90;;;;;;5115403;28;20449;-70
2021/10/16 06:11:23;;;;;;;15.07;8.87;;;8.70;99.90;;;;;;5115365;28;20782;-70
2021/10/16 06:13:51;;;;;;;13.13;6.93;;;8.70;99.90;;;;;;5115044;28;20504;-70
2021/10/16 06:16:18;;;;;;;12.43;8.93;;;8.70;99.90;;;;;;5115308;28;20456;-70
2021/10/16 06:18:44;;;;;;;21.07;10.20;;;8.70;99.90;;;;;;5115103;28;20460;-70
2021/10/16 06:21:12;;;;;;;15.93;10.70;;;8.70;99.90;;;;;;5114945;28;20994;-70
2021/10/16 06:23:39;;;;;;;14.40;10.27;;;8.80;99.90;;;;;;5115009;28;20518;-70
2021/10/16 06:26:06;;;;;;;12.80;8.70;;;8.80;99.90;;;;;;5114719;28;20539;-70
2021/10/16 06:28:33;;;;;;;12.37;7.37;;;8.80;99.90;;;;;;5114682;28;21022;-70
2021/10/16 06:31:01;;;;;;;11.80;5.90;;;8.80;99.90;;;;;;5114961;28;20456;-70
2021/10/16 06:33:27;;;;;;;10.03;5.23;;;8.90;99.90;;;;;;5114982;28;20456;-70
2021/10/16 06:35:54;;;;;;;13.47;6.87;;;8.90;99.90;;;;;;5114601;28;20923;-70
2021/10/16 06:38:22;;;;;;;11.97;7.20;;;8.90;99.90;;;;;;5115009;28;20521;-70
2021/10/16 06:40:49;;;;;;;12.30;5.97;;;8.80;99.90;;;;;;5114913;28;20500;-70
2021/10/16 06:43:15;;;;;;;10.20;5.90;;;8.90;99.90;;;;;;5115090;28;20476;-70
2021/10/16 06:45:42;;;;;;;9.67;6.07;;;8.80;99.90;;;;;;5114782;28;20454;-70
2021/10/16 06:48:10;;;;;;;10.43;5.30;;;8.90;99.90;;;;;;5114969;28;20460;-70
2021/10/16 06:50:37;;;;;;;9.90;6.03;;;8.90;99.90;;;;;;5115075;28;20468;-70
2021/10/16 06:53:04;;;;;;;14.73;7.17;;;8.90;99.90;;;;;;5114350;28;20460;-70
2021/10/16 06:55:30;;;;;;;10.70;7.50;;;8.90;99.90;;;;;;5114436;28;20963;-70
2021/10/16 06:57:57;;;;;;;11.17;6.70;;;8.90;99.90;;;;;;5114783;28;20466;-70
2021/10/16 07:00:24;;;;;;;15.33;7.20;;;8.80;99.90;;;;;;5114542;28;20457;-70
2021/10/16 07:02:50;;;;;;;15.50;8.50;;;8.80;99.90;;;;;;5114381;28;20444;-70
2021/10/16 07:05:19;;;;;;;20.27;12.00;;;8.90;99.90;;;;;;5114873;28;20456;-71
2021/10/16 07:07:45;;;;;;;13.93;10.13;;;8.90;99.90;;;;;;5114220;28;20987;-70
2021/10/16 07:10:12;;;;;;;12.67;8.00;;;8.90;99.90;;;;;;5115014;28;20926;-70
2021/10/16 07:12:39;;;;;;;9.40;8.00;;;8.90;99.90;;;;;;5118196;28;20460;-70
2021/10/16 07:15:07;;;;;;;12.80;6.13;;;8.80;99.90;;;;;;5118197;28;20773;-70
2021/10/16 07:17:34;;;;;;;20.83;6.57;;;8.70;99.90;;;;;;5118201;28;20460;-70
2021/10/16 07:20:00;;;;;;;11.90;6.00;;;8.70;99.90;;;;;;5118199;28;20488;-70
2021/10/16 07:22:29;;;;;;;12.07;5.63;;;8.80;99.90;;;;;;5118315;28;20528;-70
2021/10/16 07:24:55;;;;;;;14.10;6.10;;;8.80;99.90;;;;;;5118206;28;20456;-70
2021/10/16 07:27:22;;;;;;;8.57;5.47;;;8.80;99.90;;;;;;5118151;28;20472;-70
2021/10/16 07:29:49;;;;;;;11.93;5.30;;;8.90;99.90;;;;;;5117939;28;20498;-70
2021/10/16 07:32:16;;;;;;;12.70;5.87;;;8.90;99.90;;;;;;5118339;28;20471;-70
2021/10/16 07:34:42;;;;;;;7.53;5.30;;;9.00;99.90;;;;;;5118205;28;20571;-70
2021/10/16 07:37:09;;;;;;;14.77;5.33;;;9.10;99.90;;;;;;5118093;28;20471;-70
2021/10/16 07:39:37;;;;;;;12.93;5.00;;;9.20;99.90;;;;;;5117779;27;20936;-70
2021/10/16 07:42:04;;;;;;;9.43;3.73;;;9.30;99.90;;;;;;5117855;28;20503;-70
2021/10/16 07:44:31;;;;;;;6.60;4.50;;;9.50;99.90;;;;;;5117741;28;20905;-70
2021/10/16 07:46:58;;;;;;;8.73;4.63;;;9.70;99.90;;;;;;5117815;28;20464;-70
2021/10/16 07:49:25;;;;;;;9.77;4.37;;;9.80;99.90;;;;;;5117704;27;20451;-70
2021/10/16 07:51:51;;;;;;;10.60;4.43;;;9.90;99.90;;;;;;5117841;28;20468;-70
2021/10/16 07:54:18;;;;;;;8.67;3.57;;;10.00;99.90;;;;;;5117426;28;20476;-70
2021/10/16 07:56:46;;;;;;;10.37;3.03;;;10.00;99.90;;;;;;5117707;27;20460;-70
2021/10/16 07:59:18;;;;;;;13.10;3.53;;;10.00;99.90;;;;;;5117124;28;20465;-71
2021/10/16 08:01:45;;;;;;;8.63;3.93;;;10.00;99.90;;;;;;5117337;28;20437;-71
2021/10/16 08:04:12;;;;;;;7.33;3.10;;;10.00;99.90;;;;;;5117346;28;20490;-70
2021/10/16 08:06:39;;;;;;;5.37;2.87;;;10.00;99.90;;;;;;5117127;28;20484;-69
2021/10/16 08:09:06;;;;;;;7.70;2.97;;;9.90;99.90;;;;;;5117847;28;20437;-69
2021/10/16 08:11:34;;;;;;;12.50;3.20;;;9.90;99.90;;;;;;5117281;28;20495;-70
2021/10/16 08:14:02;;;;;;;13.60;5.07;;;9.90;99.90;;;;;;5117607;28;20454;-70
2021/10/16 08:16:28;;;;;;;8.93;4.13;;;10.00;99.90;;;;;;5117277;28;20458;-70
2021/10/16 08:18:55;;;;;;;17.07;5.30;;;10.00;99.90;;;;;;5116916;28;20918;-71
2021/10/16 08:21:22;;;;;;;10.40;6.90;;;10.00;99.90;;;;;;5117184;28;20457;-69
2021/10/16 08:23:49;;;;;;;7.53;5.73;;;10.00;99.90;;;;;;5117011;28;20540;-70
2021/10/16 08:26:16;;;;;;;9.67;6.37;;;10.10;99.90;;;;;;5117002;28;20453;-69
2021/10/16 08:28:42;;;;;;;11.17;5.03;;;10.30;99.90;;;;;;5116699;28;20453;-69
2021/10/16 08:31:10;;;;;;;13.03;4.30;;;10.40;99.90;;;;;;5116760;27;20775;-68
2021/10/16 08:33:37;;;;;;;10.30;4.40;;;10.50;99.90;;;;;;5116596;28;20909;-69
2021/10/16 08:36:05;;;;;;;9.10;3.93;;;10.50;99.90;;;;;;5115741;28;20526;-69
2021/10/16 08:38:32;;;;;;;6.87;3.30;;;10.60;99.90;;;;;;5116728;28;20452;-69
2021/10/16 08:40:59;;;;;;;11.13;4.80;;;10.60;99.90;;;;;;5116081;28;20453;-69
2021/10/16 08:43:26;;;;;;;9.93;4.10;;;10.60;99.90;;;;;;5116327;28;20456;-69
2021/10/16 08:45:53;;;;;;;12.37;4.23;;;10.70;99.90;;;;;;5116403;27;20466;-69
2021/10/16 08:48:22;;;;;;;11.83;3.40;;;10.70;99.90;;;;;;5116354;28;20843;-69
2021/10/16 08:50:49;;;;;;;9.33;2.70;;;10.80;99.90;;;;;;5116405;28;20468;-70
2021/10/16 08:53:16;;;;;;;4.23;2.40;;;10.90;99.90;;;;;;5116491;28;20454;-70
2021/10/16 08:55:43;;;;;;;8.60;3.30;;;11.00;99.90;;;;;;5116309;28;20493;-70
2021/10/16 08:58:10;;;;;;;7.47;2.60;;;11.10;99.90;;;;;;5116647;28;20457;-70
2021/10/16 09:00:49;;;;;;;5.70;2.73;;;11.20;99.90;;;;;;5116564;28;20467;-70
2021/10/16 09:03:17;;;;;;;10.70;3.07;;;11.30;99.90;;;;;;5116716;28;20436;-70
2021/10/16 09:06:10;;;;;;;6.27;3.10;;;11.40;99.90;;;;;;5115972;28;20466;-70
2021/10/16 09:08:40;;;;;;;15.13;3.90;;;11.50;99.90;;;;;;5116386;28;20492;-70
2021/10/16 09:11:28;;;;;;;7.10;3.30;;;11.60;99.90;;;;;;5116081;28;20927;-69
2021/10/16 09:13:58;;;;;;;10.27;2.87;;;11.70;99.90;;;;;;5116517;28;20445;-70
2021/10/16 09:16:30;;;;;;;7.60;1.77;;;11.80;99.90;;;;;;5117824;28;20486;-69
2021/10/16 09:19:04;;;;;;;7.53;2.47;;;11.80;99.90;;;;;;5119082;28;20444;-69
2021/10/16 09:21:34;;;;;;;11.50;2.43;;;11.90;99.90;;;;;;5119309;28;20440;-70
2021/10/16 09:24:09;;;;;;;5.47;2.53;;;12.00;99.90;;;;;;5118795;28;20495;-69
2021/10/16 09:26:38;;;;;;;8.50;2.60;;;12.00;99.90;;;;;;5119115;28;20450;-70
2021/10/16 09:29:07;;;;;;;9.47;2.90;;;12.10;99.90;;;;;;5117632;28;20559;-70
2021/10/16 09:31:37;;;;;;;6.60;2.50;;;12.10;99.90;;;;;;5116230;28;20523;-68
2021/10/16 09:34:05;;;;;;;8.07;3.10;;;12.20;99.90;;;;;;5115670;27;20924;-70
2021/10/16 09:36:34;;;;;;;4.90;2.10;;;12.20;99.90;;;;;;5116254;28;20495;-69
2021/10/16 09:39:02;;;;;;;6.20;2.50;;;12.20;99.90;;;;;;5117967;28;20627;-68
2021/10/16 09:41:32;;;;;;;10.53;2.77;;;12.30;99.90;;;;;;5116179;27;20454;-69
2021/10/16 09:43:59;;;;;;;6.27;2.60;;;12.40;99.90;;;;;;5116031;28;20949;-68
2021/10/16 09:46:26;;;;;;;6.80;1.93;;;12.50;99.90;;;;;;5115360;28;20936;-70
2021/10/16 09:48:53;;;;;;;5.27;2.30;;;12.50;99.90;;;;;;5115550;28;20843;-70
2021/10/16 09:51:21;;;;;;;6.90;1.97;;;12.50;99.90;;;;;;5115368;28;20453;-70
2021/10/16 09:54:05;;;;;;;6.40;1.70;;;12.40;99.90;;;;;;5114944;27;20473;-70
2021/10/16 09:56:33;;;;;;;6.90;1.83;;;12.40;99.90;;;;;;5115359;28;20476;-70
2021/10/16 09:59:01;;;;;;;8.70;2.17;;;12.30;99.90;;;;;;5114943;28;20449;-70
2021/10/16 10:01:29;;;;;;;10.30;2.77;;;12.30;99.90;;;;;;5115157;28;20460;-70
2021/10/16 10:03:57;;;;;;;4.67;2.17;;;12.40;99.90;;;;;;5115025;28;20452;-70
2021/10/16 10:06:26;;;;;;;5.17;2.20;;;12.50;99.90;;;;;;5114833;28;20476;-70
2021/10/16 10:08:55;;;;;;;5.10;1.67;;;12.50;99.90;;;;;;5115623;28;20437;-70
2021/10/16 10:11:21;;;;;;;6.13;2.27;;;12.50;99.90;;;;;;5115034;28;20932;-71
2021/10/16 10:13:49;;;;;;;5.13;1.60;;;12.40;99.90;;;;;;5115159;28;20455;-71
2021/10/16 10:16:16;;;;;;;3.07;1.40;;;12.30;99.90;;;;;;5114772;28;20926;-71
2021/10/16 10:19:02;;;;;;;8.33;1.70;;;12.30;99.90;;;;;;5114654;28;20526;-70
2021/10/16 10:21:34;;;;;;;3.43;2.20;;;12.30;99.90;;;;;;5115078;28;20445;-70
2021/10/16 10:24:04;;;;;;;5.90;1.90;;;12.40;99.90;;;;;;5115194;28;20513;-70
2021/10/16 10:26:33;;;;;;;3.57;1.53;;;12.40;99.90;;;;;;5115267;28;20457;-69
2021/10/16 10:29:02;;;;;;;5.90;2.10;;;12.50;99.90;;;;;;5114893;28;20559;-69
2021/10/16 10:32:01;;;;;;;6.40;2.17;;;12.60;99.90;;;;;;5114885;28;20916;-69
2021/10/16 10:34:30;;;;;;;5.70;1.83;;;12.70;99.90;;;;;;5114925;28;20788;-69
2021/10/16 10:37:01;;;;;;;6.17;1.50;;;12.90;99.90;;;;;;5114516;28;20479;-69
2021/10/16 10:39:57;;;;;;;4.43;2.30;;;12.90;99.90;;;;;;5114818;28;20829;-69
2021/10/16 10:42:52;;;;;;;5.17;1.60;;;13.00;99.90;;;;;;5114958;28;20497;-69
2021/10/16 10:45:34;;;;;;;6.60;1.87;;;13.00;99.90;;;;;;5117510;28;20490;-69
2021/10/16 10:48:13;;;;;;;2.57;1.60;;;13.10;99.90;;;;;;5120251;27;20435;-68
2021/10/16 10:50:49;;;;;;;4.70;1.97;;;13.20;99.90;;;;;;5118822;28;20739;-68
2021/10/16 10:53:27;;;;;;;4.23;1.50;;;13.30;99.90;;;;;;5118923;28;20490;-69
2021/10/16 10:55:58;;;;;;;5.27;1.97;;;13.20;99.90;;;;;;5118347;28;20573;-69
2021/10/16 10:59:14;;;;;;;7.63;1.70;;;13.10;99.90;;;;;;5119163;28;20448;-70
2021/10/16 11:02:03;;;;;;;7.77;2.13;;;13.00;99.90;;;;;;5116903;28;20557;-70
2021/10/16 11:04:43;;;;;;;7.07;1.90;;;13.00;99.90;;;;;;5118468;28;20547;-70
2021/10/16 11:07:12;;;;;;;4.53;2.80;;;13.10;99.90;;;;;;5118313;28;20472;-70
2021/10/16 11:09:39;;;;;;;9.90;1.50;;;13.20;99.90;;;;;;5118529;28;20454;-71
2021/10/16 11:12:09;;;;;;;6.27;2.37;;;13.20;99.90;;;;;;5118016;28;20451;-69
2021/10/16 11:14:37;;;;;;;4.90;1.90;;;13.30;99.90;;;;;;5118191;28;20494;-69
2021/10/16 11:17:06;;;;;;;4.80;1.47;;;13.50;99.90;;;;;;5117689;28;20477;-70
2021/10/16 11:19:50;;;;;;;8.67;1.80;;;13.80;99.90;;;;;;5118761;28;20751;-70
2021/10/16 11:22:17;;;;;;;4.07;1.60;;;14.00;99.90;;;;;;5117743;28;20482;-70
2021/10/16 11:24:44;;;;;;;3.50;1.20;;;14.00;99.90;;;;;;5117844;28;20482;-70
2021/10/16 11:27:12;;;;;;;2.57;1.40;;;13.90;99.90;;;;;;5117605;28;20452;-70
2021/10/16 11:29:41;;;;;;;8.50;1.57;;;13.80;99.90;;;;;;5118032;28;20453;-70
2021/10/16 11:32:18;;;;;;;3.23;1.40;;;13.60;99.90;;;;;;5118043;27;20456;-70
2021/10/16 11:34:59;;;;;;;1.83;1.10;;;13.40;99.90;;;;;;5117315;28;20959;-70
2021/10/16 11:37:50;;;;;;;4.53;1.53;;;13.40;99.90;;;;;;5118041;27;20463;-70
2021/10/16 11:40:18;;;;;;;12.17;1.90;;;13.30;99.90;;;;;;5102151;28;20928;-70
2021/10/16 11:42:49;;;;;;;7.43;1.53;;;13.30;99.90;;;;;;5117828;28;20458;-70
2021/10/16 11:45:18;;;;;;;3.00;1.30;;;13.30;99.90;;;;;;5117740;28;20452;-70
2021/10/16 11:47:49;;;;;;;4.37;1.17;;;13.30;99.90;;;;;;5117875;28;20542;-70
2021/10/16 11:50:18;;;;;;;5.17;1.53;;;13.30;99.90;;;;;;5117438;28;20445;-70
2021/10/16 11:52:47;;;;;;;4.70;1.37;;;13.40;99.90;;;;;;5117333;28;20457;-70
2021/10/16 11:55:16;;;;;;;4.40;1.20;;;13.30;99.90;;;;;;5117179;28;20904;-70
2021/10/16 11:57:43;;;;;;;3.17;1.30;;;13.30;99.90;;;;;;5116984;28;20460;-70
2021/10/16 12:00:28;;;;;;;6.43;1.40;;;13.30;99.90;;;;;;5117170;28;20796;-69
2021/10/16 12:02:56;;;;;;;6.97;1.43;;;13.30;99.90;;;;;;5117316;28;20445;-70
2021/10/16 12:05:25;;;;;;;3.17;1.50;;;13.30;99.90;;;;;;5117531;28;20460;-70
2021/10/16 12:07:53;;;;;;;3.67;1.57;;;13.30;99.90;;;;;;5116735;28;21002;-71
2021/10/16 12:10:33;;;;;;;4.47;1.50;;;13.30;99.90;;;;;;5116679;28;20949;-70
2021/10/16 12:13:03;;;;;;;3.20;1.20;;;13.60;99.90;;;;;;5117407;28;20439;-71
2021/10/16 12:15:41;;;;;;;2.40;1.63;;;14.10;99.90;;;;;;5117092;27;20532;-70
2021/10/16 12:18:17;;;;;;;4.80;1.80;;;14.30;99.90;;;;;;5117008;28;20432;-71
2021/10/16 12:20:46;;;;;;;2.70;1.57;;;14.30;99.90;;;;;;5117027;28;20962;-70
2021/10/16 12:23:13;;;;;;;3.40;1.40;;;14.30;99.90;;;;;;5116834;28;20763;-70
2021/10/16 12:25:48;;;;;;;11.33;1.30;;;14.20;99.90;;;;;;5116661;28;20456;-70
2021/10/16 12:28:15;;;;;;;5.70;1.73;;;14.00;99.90;;;;;;5116853;28;20497;-70
2021/10/16 12:31:09;;;;;;;3.03;1.60;;;13.80;99.90;;;;;;5116947;28;20457;-70
2021/10/16 12:34:01;;;;;;;7.10;1.70;;;13.70;99.90;;;;;;5102123;28;20457;-69
2021/10/16 12:36:30;;;;;;;3.57;1.60;;;13.40;99.90;;;;;;5116503;28;20490;-68
2021/10/16 12:38:57;;;;;;;4.30;1.50;;;13.20;99.90;;;;;;5116452;28;20460;-68
2021/10/16 12:41:33;;;;;;;5.70;1.87;;;13.20;99.90;;;;;;5116472;28;20468;-70
2021/10/16 12:44:16;;;;;;;4.17;1.50;;;13.20;99.90;;;;;;5116321;28;20528;-69
2021/10/16 12:46:46;;;;;;;8.60;2.23;;;13.10;99.90;;;;;;5116171;28;20846;-69
2021/10/16 12:49:33;;;;;;;4.07;1.53;;;13.20;99.90;;;;;;5116655;28;20462;-70
2021/10/16 12:52:00;;;;;;;3.80;1.83;;;13.10;99.90;;;;;;5116267;28;20433;-69
2021/10/16 12:54:35;;;;;;;3.10;1.47;;;13.20;99.90;;;;;;5116057;28;20457;-70
2021/10/16 12:57:03;;;;;;;3.30;1.40;;;13.20;99.90;;;;;;5116154;28;20946;-69
2021/10/16 12:59:30;;;;;;;6.23;1.80;;;13.20;99.90;;;;;;5116301;28;20452;-70